sensor_id;sensor_type;location;lat;lon;timestamp;temperature;humidity
5276;DHT22;2661;50.786;12.728;2022-08-19T00:01:44;19.60;99.90
5276;DHT22;2661;50.786;12.728;2022-08-19T00:04:24;19.70;99.90
5276;DHT22;2661;50.786;12.728;2022-08-19T00:06:51;19.60;99.90
5276;DHT22;2661;50.786;12.728;2022-08-19T00:09:19;19.60;99.90
5276;DHT22;2661;50.786;12.728;2022-08-19T00:11:46;19.60;99.90
5276;DHT22;2661;50.786;12.728;2022-08-19T00:14:14;19.60;99.90
5276;DHT22;2661;50.786;12.728;2022-08-19T00:16:44;19.50;99.90
5276;DHT22;2661;50.786;12.728;2022-08-19T00:19:11;19.50;99.90
5276;DHT22;2661;50.786;12.728;2022-08-19T00:21:38;19.50;99.90
5276;DHT22;2661;50.786;12.728;2022-08-19T00:24:09;19.50;99.90
5276;DHT22;2661;50.786;12.728;2022-08-19T00:26:36;19.50;99.90
5276;DHT22;2661;50.786;12.728;2022-08-19T00:29:04;19.50;99.90
5276;DHT22;2661;50.786;12.728;2022-08-19T00:31:31;19.40;99.90
5276;DHT22;2661;50.786;12.728;2022-08-19T00:33:58;19.40;99.90
5276;DHT22;2661;50.786;12.728;2022-08-19T00:36:25;19.30;99.90
5276;DHT22;2661;50.786;12.728;2022-08-19T00:38:52;19.30;99.90
5276;DHT22;2661;50.786;12.728;2022-08-19T00:41:19;19.40;99.90
5276;DHT22;2661;50.786;12.728;2022-08-19T00:44:22;19.40;99.90
5276;DHT22;2661;50.786;12.728;2022-08-19T00:46:42;19.40;99.90
5276;DHT22;2661;50.786;12.728;2022-08-19T00:49:12;19.40;99.90
5276;DHT22;2661;50.786;12.728;2022-08-19T00:51:41;19.30;99.90
5276;DHT22;2661;50.786;12.728;2022-08-19T00:54:09;19.40;99.90
5276;DHT22;2661;50.786;12.728;2022-08-19T00:56:36;19.40;99.90
5276;DHT22;2661;50.786;12.728;2022-08-19T00:59:03;19.30;99.90
5276;DHT22;2661;50.786;12.728;2022-08-19T01:01:39;19.30;99.90
5276;DHT22;2661;50.786;12.728;2022-08-19T01:04:07;19.30;99.90
5276;DHT22;2661;50.786;12.728;2022-08-19T01:06:35;19.30;99.90
5276;DHT22;2661;50.786;12.728;2022-08-19T01:09:02;19.30;99.90
5276;DHT22;2661;50.786;12.728;2022-08-19T01:11:29;19.40;99.90
5276;DHT22;2661;50.786;12.728;2022-08-19T01:13:56;19.40;99.90
5276;DHT22;2661;50.786;12.728;2022-08-19T01:16:24;19.40;99.90
5276;DHT22;2661;50.786;12.728;2022-08-19T01:18:51;19.30;99.90
5276;DHT22;2661;50.786;12.728;2022-08-19T01:21:20;19.40;99.90
5276;DHT22;2661;50.786;12.728;2022-08-19T01:23:48;19.40;99.90
5276;DHT22;2661;50.786;12.728;2022-08-19T01:26:16;19.30;99.90
5276;DHT22;2661;50.786;12.728;2022-08-19T01:28:45;19.30;99.90
5276;DHT22;2661;50.786;12.728;2022-08-19T01:31:16;19.30;99.90
5276;DHT22;2661;50.786;12.728;2022-08-19T01:33:54;19.30;99.90
5276;DHT22;2661;50.786;12.728;2022-08-19T01:36:22;19.30;99.90
5276;DHT22;2661;50.786;12.728;2022-08-19T01:38:49;19.40;99.90
5276;DHT22;2661;50.786;12.728;2022-08-19T01:41:17;19.30;99.90
5276;DHT22;2661;50.786;12.728;2022-08-19T01:43:43;19.30;99.90
5276;DHT22;2661;50.786;12.728;2022-08-19T01:46:30;19.40;99.90
5276;DHT22;2661;50.786;12.728;2022-08-19T01:48:58;19.30;99.90
5276;DHT22;2661;50.786;12.728;2022-08-19T01:51:25;19.30;99.90
5276;DHT22;2661;50.786;12.728;2022-08-19T01:53:54;19.30;99.90
5276;DHT22;2661;50.786;12.728;2022-08-19T01:56:20;19.30;99.90
5276;DHT22;2661;50.786;12.728;2022-08-19T01:58:54;19.30;99.90
5276;DHT22;2661;50.786;12.728;2022-08-19T02:01:21;19.30;99.90
5276;DHT22;2661;50.786;12.728;2022-08-19T02:03:51;19.30;1.00
5276;DHT22;2661;50.786;12.728;2022-08-19T02:06:22;19.30;1.00
5276;DHT22;2661;50.786;12.728;2022-08-19T02:08:52;19.30;1.00
5276;DHT22;2661;50.786;12.728;2022-08-19T02:11:28;19.20;1.00
5276;DHT22;2661;50.786;12.728;2022-08-19T02:13:55;19.20;1.00
5276;DHT22;2661;50.786;12.728;2022-08-19T02:16:22;19.20;1.00
5276;DHT22;2661;50.786;12.728;2022-08-19T02:18:48;19.30;1.00
5276;DHT22;2661;50.786;12.728;2022-08-19T02:21:16;19.20;1.00
5276;DHT22;2661;50.786;12.728;2022-08-19T02:23:43;19.20;1.00
5276;DHT22;2661;50.786;12.728;2022-08-19T02:26:10;19.20;1.00
5276;DHT22;2661;50.786;12.728;2022-08-19T02:28:37;19.20;1.00
5276;DHT22;2661;50.786;12.728;2022-08-19T02:31:08;19.20;1.00
5276;DHT22;2661;50.786;12.728;2022-08-19T02:33:35;19.20;1.00
5276;DHT22;2661;50.786;12.728;2022-08-19T02:36:05;19.20;1.00
5276;DHT22;2661;50.786;12.728;2022-08-19T02:38:32;19.20;1.00
5276;DHT22;2661;50.786;12.728;2022-08-19T02:41:00;19.30;1.00
5276;DHT22;2661;50.786;12.728;2022-08-19T02:43:28;19.30;1.00
5276;DHT22;2661;50.786;12.728;2022-08-19T02:46:00;19.30;1.00
5276;DHT22;2661;50.786;12.728;2022-08-19T02:48:26;19.20;1.00
5276;DHT22;2661;50.786;12.728;2022-08-19T02:50:53;19.20;1.00
5276;DHT22;2661;50.786;12.728;2022-08-19T02:53:22;19.10;1.00
5276;DHT22;2661;50.786;12.728;2022-08-19T02:55:50;19.10;1.00
5276;DHT22;2661;50.786;12.728;2022-08-19T02:58:18;19.10;1.00
5276;DHT22;2661;50.786;12.728;2022-08-19T03:00:47;19.10;34.60
5276;DHT22;2661;50.786;12.728;2022-08-19T03:03:16;19.20;67.50
5276;DHT22;2661;50.786;12.728;2022-08-19T03:05:43;19.10;36.80
5276;DHT22;2661;50.786;12.728;2022-08-19T03:08:21;19.10;68.70
5276;DHT22;2661;50.786;12.728;2022-08-19T03:10:48;19.20;75.00
5276;DHT22;2661;50.786;12.728;2022-08-19T03:13:16;19.20;12.70
5276;DHT22;2661;50.786;12.728;2022-08-19T03:15:44;19.10;42.50
5276;DHT22;2661;50.786;12.728;2022-08-19T03:18:12;19.10;99.90
5276;DHT22;2661;50.786;12.728;2022-08-19T03:20:40;19.20;6.50
5276;DHT22;2661;50.786;12.728;2022-08-19T03:23:07;19.20;99.90
5276;DHT22;2661;50.786;12.728;2022-08-19T03:25:38;19.20;1.00
5276;DHT22;2661;50.786;12.728;2022-08-19T03:28:08;19.20;1.00
5276;DHT22;2661;50.786;12.728;2022-08-19T03:30:34;19.10;99.90
5276;DHT22;2661;50.786;12.728;2022-08-19T03:33:03;19.20;99.90
5276;DHT22;2661;50.786;12.728;2022-08-19T03:35:30;19.10;74.20
5276;DHT22;2661;50.786;12.728;2022-08-19T03:38:00;19.20;93.10
5276;DHT22;2661;50.786;12.728;2022-08-19T03:40:27;19.20;99.90
5276;DHT22;2661;50.786;12.728;2022-08-19T03:42:53;19.20;99.90
5276;DHT22;2661;50.786;12.728;2022-08-19T03:45:22;19.20;99.90
5276;DHT22;2661;50.786;12.728;2022-08-19T03:47:49;19.20;99.90
5276;DHT22;2661;50.786;12.728;2022-08-19T03:50:15;19.10;99.90
5276;DHT22;2661;50.786;12.728;2022-08-19T03:52:47;19.10;1.00
5276;DHT22;2661;50.786;12.728;2022-08-19T03:55:14;19.10;99.90
5276;DHT22;2661;50.786;12.728;2022-08-19T03:57:40;19.10;99.90
5276;DHT22;2661;50.786;12.728;2022-08-19T04:00:07;19.10;1.00
5276;DHT22;2661;50.786;12.728;2022-08-19T04:02:39;19.10;1.00
5276;DHT22;2661;50.786;12.728;2022-08-19T04:05:06;19.10;1.00
5276;DHT22;2661;50.786;12.728;2022-08-19T04:07:34;19.10;1.00
5276;DHT22;2661;50.786;12.728;2022-08-19T04:10:02;19.00;1.00
5276;DHT22;2661;50.786;12.728;2022-08-19T04:12:29;19.00;1.00
5276;DHT22;2661;50.786;12.728;2022-08-19T04:14:56;19.10;1.00
5276;DHT22;2661;50.786;12.728;2022-08-19T04:17:22;19.10;1.00
5276;DHT22;2661;50.786;12.728;2022-08-19T04:19:49;19.00;38.10
5276;DHT22;2661;50.786;12.728;2022-08-19T04:22:16;19.00;99.90
5276;DHT22;2661;50.786;12.728;2022-08-19T04:24:42;19.10;99.90
5276;DHT22;2661;50.786;12.728;2022-08-19T04:27:09;19.10;99.90
5276;DHT22;2661;50.786;12.728;2022-08-19T04:29:36;19.10;99.90
5276;DHT22;2661;50.786;12.728;2022-08-19T04:32:05;19.10;99.90
5276;DHT22;2661;50.786;12.728;2022-08-19T04:34:35;19.10;1.00
5276;DHT22;2661;50.786;12.728;2022-08-19T04:37:21;19.00;1.00
5276;DHT22;2661;50.786;12.728;2022-08-19T04:39:49;19.10;1.00
5276;DHT22;2661;50.786;12.728;2022-08-19T04:42:35;19.10;1.00
5276;DHT22;2661;50.786;12.728;2022-08-19T04:45:14;19.10;90.30
5276;DHT22;2661;50.786;12.728;2022-08-19T04:47:43;19.10;38.60
5276;DHT22;2661;50.786;12.728;2022-08-19T04:50:13;19.10;99.90
5276;DHT22;2661;50.786;12.728;2022-08-19T04:52:40;19.10;99.90
5276;DHT22;2661;50.786;12.728;2022-08-19T04:55:10;19.00;99.90
5276;DHT22;2661;50.786;12.728;2022-08-19T04:57:36;19.10;1.00
5276;DHT22;2661;50.786;12.728;2022-08-19T05:00:07;19.00;99.90
5276;DHT22;2661;50.786;12.728;2022-08-19T05:02:34;19.00;1.00
5276;DHT22;2661;50.786;12.728;2022-08-19T05:05:01;19.00;25.40
5276;DHT22;2661;50.786;12.728;2022-08-19T05:07:27;19.00;95.40
5276;DHT22;2661;50.786;12.728;2022-08-19T05:09:55;19.10;25.40
5276;DHT22;2661;50.786;12.728;2022-08-19T05:12:25;19.00;5.70
5276;DHT22;2661;50.786;12.728;2022-08-19T05:14:54;19.10;1.00
5276;DHT22;2661;50.786;12.728;2022-08-19T05:17:23;19.10;99.90
5276;DHT22;2661;50.786;12.728;2022-08-19T05:19:54;19.10;99.90
5276;DHT22;2661;50.786;12.728;2022-08-19T05:22:39;19.10;99.90
5276;DHT22;2661;50.786;12.728;2022-08-19T05:25:08;19.10;99.90
5276;DHT22;2661;50.786;12.728;2022-08-19T05:27:39;19.10;1.00
5276;DHT22;2661;50.786;12.728;2022-08-19T05:30:06;19.10;1.00
5276;DHT22;2661;50.786;12.728;2022-08-19T05:32:33;19.10;7.80
5276;DHT22;2661;50.786;12.728;2022-08-19T05:35:00;19.10;1.00
5276;DHT22;2661;50.786;12.728;2022-08-19T05:37:27;19.10;1.00
5276;DHT22;2661;50.786;12.728;2022-08-19T05:39:54;19.00;1.00
5276;DHT22;2661;50.786;12.728;2022-08-19T05:42:21;19.10;72.60
5276;DHT22;2661;50.786;12.728;2022-08-19T05:44:49;19.10;1.00
5276;DHT22;2661;50.786;12.728;2022-08-19T05:47:17;19.00;1.00
5276;DHT22;2661;50.786;12.728;2022-08-19T05:49:46;19.00;99.00
5276;DHT22;2661;50.786;12.728;2022-08-19T05:52:13;19.00;99.90
5276;DHT22;2661;50.786;12.728;2022-08-19T05:54:44;19.00;1.00
5276;DHT22;2661;50.786;12.728;2022-08-19T05:57:20;19.00;99.90
5276;DHT22;2661;50.786;12.728;2022-08-19T05:59:46;19.00;1.00
5276;DHT22;2661;50.786;12.728;2022-08-19T06:02:23;19.00;1.00
5276;DHT22;2661;50.786;12.728;2022-08-19T06:04:50;19.00;1.00
5276;DHT22;2661;50.786;12.728;2022-08-19T06:07:16;19.00;1.00
5276;DHT22;2661;50.786;12.728;2022-08-19T06:09:43;19.00;1.00
5276;DHT22;2661;50.786;12.728;2022-08-19T06:12:26;19.00;1.00
5276;DHT22;2661;50.786;12.728;2022-08-19T06:14:58;19.00;99.90
5276;DHT22;2661;50.786;12.728;2022-08-19T06:17:27;19.00;99.90
5276;DHT22;2661;50.786;12.728;2022-08-19T06:19:57;19.20;13.00
5276;DHT22;2661;50.786;12.728;2022-08-19T06:22:25;19.00;77.60
5276;DHT22;2661;50.786;12.728;2022-08-19T06:24:52;19.10;99.90
5276;DHT22;2661;50.786;12.728;2022-08-19T06:27:20;19.10;99.90
5276;DHT22;2661;50.786;12.728;2022-08-19T06:29:47;19.10;1.00
5276;DHT22;2661;50.786;12.728;2022-08-19T06:32:15;19.10;1.00
5276;DHT22;2661;50.786;12.728;2022-08-19T06:34:42;19.10;1.00
5276;DHT22;2661;50.786;12.728;2022-08-19T06:37:10;19.10;49.60
5276;DHT22;2661;50.786;12.728;2022-08-19T06:39:38;19.10;99.90
5276;DHT22;2661;50.786;12.728;2022-08-19T06:42:05;19.10;99.90
5276;DHT22;2661;50.786;12.728;2022-08-19T06:44:37;19.10;99.90
5276;DHT22;2661;50.786;12.728;2022-08-19T06:47:09;19.20;12.80
5276;DHT22;2661;50.786;12.728;2022-08-19T06:49:49;19.20;1.00
5276;DHT22;2661;50.786;12.728;2022-08-19T06:52:16;19.20;1.00
5276;DHT22;2661;50.786;12.728;2022-08-19T06:54:43;19.20;1.00
5276;DHT22;2661;50.786;12.728;2022-08-19T06:57:22;19.30;1.00
5276;DHT22;2661;50.786;12.728;2022-08-19T06:59:49;19.30;1.00
5276;DHT22;2661;50.786;12.728;2022-08-19T07:02:16;19.20;1.00
5276;DHT22;2661;50.786;12.728;2022-08-19T07:04:48;19.30;1.00
5276;DHT22;2661;50.786;12.728;2022-08-19T07:07:18;19.30;1.00
5276;DHT22;2661;50.786;12.728;2022-08-19T07:09:47;19.30;1.00
5276;DHT22;2661;50.786;12.728;2022-08-19T07:12:27;19.30;1.00
5276;DHT22;2661;50.786;12.728;2022-08-19T07:14:56;19.30;1.00
5276;DHT22;2661;50.786;12.728;2022-08-19T07:17:24;19.30;1.00
5276;DHT22;2661;50.786;12.728;2022-08-19T07:19:51;19.30;1.00
5276;DHT22;2661;50.786;12.728;2022-08-19T07:22:20;19.30;1.00
5276;DHT22;2661;50.786;12.728;2022-08-19T07:24:50;19.30;1.00
5276;DHT22;2661;50.786;12.728;2022-08-19T07:27:17;19.40;1.00
5276;DHT22;2661;50.786;12.728;2022-08-19T07:29:51;19.30;99.90
5276;DHT22;2661;50.786;12.728;2022-08-19T07:32:22;19.20;99.90
5276;DHT22;2661;50.786;12.728;2022-08-19T07:34:49;19.20;1.00
5276;DHT22;2661;50.786;12.728;2022-08-19T07:37:15;19.20;1.00
5276;DHT22;2661;50.786;12.728;2022-08-19T07:39:42;19.20;1.00
5276;DHT22;2661;50.786;12.728;2022-08-19T07:42:09;19.20;99.90
5276;DHT22;2661;50.786;12.728;2022-08-19T07:44:39;19.20;1.00
5276;DHT22;2661;50.786;12.728;2022-08-19T07:47:11;19.20;1.00
5276;DHT22;2661;50.786;12.728;2022-08-19T07:50:03;19.20;99.90
5276;DHT22;2661;50.786;12.728;2022-08-19T07:52:33;19.20;99.90
5276;DHT22;2661;50.786;12.728;2022-08-19T07:55:00;19.20;1.00
5276;DHT22;2661;50.786;12.728;2022-08-19T07:57:30;19.30;1.00
5276;DHT22;2661;50.786;12.728;2022-08-19T07:59:57;19.30;1.00
5276;DHT22;2661;50.786;12.728;2022-08-19T08:02:28;19.30;1.00
5276;DHT22;2661;50.786;12.728;2022-08-19T08:04:55;19.30;99.90
5276;DHT22;2661;50.786;12.728;2022-08-19T08:07:40;19.40;1.00
5276;DHT22;2661;50.786;12.728;2022-08-19T08:10:26;19.40;63.90
5276;DHT22;2661;50.786;12.728;2022-08-19T08:12:53;19.50;1.00
5276;DHT22;2661;50.786;12.728;2022-08-19T08:15:37;19.50;1.00
5276;DHT22;2661;50.786;12.728;2022-08-19T08:18:09;19.50;1.00
5276;DHT22;2661;50.786;12.728;2022-08-19T08:20:36;19.40;1.00
5276;DHT22;2661;50.786;12.728;2022-08-19T08:23:02;19.40;99.90
5276;DHT22;2661;50.786;12.728;2022-08-19T08:25:48;19.50;99.90
5276;DHT22;2661;50.786;12.728;2022-08-19T08:28:16;19.30;1.00
5276;DHT22;2661;50.786;12.728;2022-08-19T08:30:43;19.30;1.00
5276;DHT22;2661;50.786;12.728;2022-08-19T08:33:13;19.30;99.90
5276;DHT22;2661;50.786;12.728;2022-08-19T08:35:45;19.30;1.00
5276;DHT22;2661;50.786;12.728;2022-08-19T08:38:12;19.30;99.90
5276;DHT22;2661;50.786;12.728;2022-08-19T08:43:22;19.30;99.90
5276;DHT22;2661;50.786;12.728;2022-08-19T08:46:08;19.30;1.00
5276;DHT22;2661;50.786;12.728;2022-08-19T08:51:21;19.30;1.00
5276;DHT22;2661;50.786;12.728;2022-08-19T08:53:50;19.30;99.90
5276;DHT22;2661;50.786;12.728;2022-08-19T08:56:22;19.30;99.90
5276;DHT22;2661;50.786;12.728;2022-08-19T08:59:10;19.30;99.90
5276;DHT22;2661;50.786;12.728;2022-08-19T09:01:39;19.30;59.00
5276;DHT22;2661;50.786;12.728;2022-08-19T09:04:06;19.40;99.90
5276;DHT22;2661;50.786;12.728;2022-08-19T09:06:39;19.40;97.00
5276;DHT22;2661;50.786;12.728;2022-08-19T09:17:10;19.60;99.90
5276;DHT22;2661;50.786;12.728;2022-08-19T09:19:53;19.50;1.00
5276;DHT22;2661;50.786;12.728;2022-08-19T09:22:20;19.50;1.00
5276;DHT22;2661;50.786;12.728;2022-08-19T09:24:52;19.40;99.90
5276;DHT22;2661;50.786;12.728;2022-08-19T09:27:20;19.60;99.90
5276;DHT22;2661;50.786;12.728;2022-08-19T09:30:07;19.60;94.00
5276;DHT22;2661;50.786;12.728;2022-08-19T09:32:34;19.70;1.00
5276;DHT22;2661;50.786;12.728;2022-08-19T09:35:01;19.90;1.00
5276;DHT22;2661;50.786;12.728;2022-08-19T09:37:34;20.00;99.90
5276;DHT22;2661;50.786;12.728;2022-08-19T09:40:01;20.00;99.90
5276;DHT22;2661;50.786;12.728;2022-08-19T09:42:28;20.10;1.00
5276;DHT22;2661;50.786;12.728;2022-08-19T09:45:01;20.00;1.00
5276;DHT22;2661;50.786;12.728;2022-08-19T09:47:30;20.20;1.00
5276;DHT22;2661;50.786;12.728;2022-08-19T09:49:59;20.30;1.00
5276;DHT22;2661;50.786;12.728;2022-08-19T09:52:32;20.40;1.00
5276;DHT22;2661;50.786;12.728;2022-08-19T09:55:03;20.40;1.00
5276;DHT22;2661;50.786;12.728;2022-08-19T09:57:33;20.30;1.00
5276;DHT22;2661;50.786;12.728;2022-08-19T10:00:00;20.30;1.00
5276;DHT22;2661;50.786;12.728;2022-08-19T10:02:27;20.20;99.90
5276;DHT22;2661;50.786;12.728;2022-08-19T10:04:54;20.20;99.90
5276;DHT22;2661;50.786;12.728;2022-08-19T10:07:48;20.10;99.90
5276;DHT22;2661;50.786;12.728;2022-08-19T10:10:16;20.10;99.90
5276;DHT22;2661;50.786;12.728;2022-08-19T10:12:42;20.20;99.90
5276;DHT22;2661;50.786;12.728;2022-08-19T10:15:14;20.10;99.90
5276;DHT22;2661;50.786;12.728;2022-08-19T10:17:41;20.00;1.00
5276;DHT22;2661;50.786;12.728;2022-08-19T10:20:20;20.00;1.00
5276;DHT22;2661;50.786;12.728;2022-08-19T10:22:48;19.70;1.00
5276;DHT22;2661;50.786;12.728;2022-08-19T10:25:20;19.80;1.00
5276;DHT22;2661;50.786;12.728;2022-08-19T10:27:47;19.80;1.00
5276;DHT22;2661;50.786;12.728;2022-08-19T10:30:17;19.70;1.00
5276;DHT22;2661;50.786;12.728;2022-08-19T10:32:45;19.70;1.00
5276;DHT22;2661;50.786;12.728;2022-08-19T10:35:13;19.70;99.90
5276;DHT22;2661;50.786;12.728;2022-08-19T10:37:47;19.80;99.90
5276;DHT22;2661;50.786;12.728;2022-08-19T10:40:27;19.90;1.00
5276;DHT22;2661;50.786;12.728;2022-08-19T10:42:54;19.80;1.00
5276;DHT22;2661;50.786;12.728;2022-08-19T10:45:22;19.80;1.00
5276;DHT22;2661;50.786;12.728;2022-08-19T10:47:53;19.80;1.00
5276;DHT22;2661;50.786;12.728;2022-08-19T10:50:21;19.80;1.00
5276;DHT22;2661;50.786;12.728;2022-08-19T10:53:07;19.80;1.00
5276;DHT22;2661;50.786;12.728;2022-08-19T10:55:37;19.80;1.00
5276;DHT22;2661;50.786;12.728;2022-08-19T10:58:23;19.70;1.00
5276;DHT22;2661;50.786;12.728;2022-08-19T11:00:52;19.70;1.00
5276;DHT22;2661;50.786;12.728;2022-08-19T11:03:20;19.70;1.00
5276;DHT22;2661;50.786;12.728;2022-08-19T11:05:56;19.60;1.00
5276;DHT22;2661;50.786;12.728;2022-08-19T11:08:23;19.50;1.00
5276;DHT22;2661;50.786;12.728;2022-08-19T11:10:53;19.40;99.90
5276;DHT22;2661;50.786;12.728;2022-08-19T11:13:24;19.40;99.90
5276;DHT22;2661;50.786;12.728;2022-08-19T11:15:57;19.30;1.00
5276;DHT22;2661;50.786;12.728;2022-08-19T11:18:30;19.30;99.90
5276;DHT22;2661;50.786;12.728;2022-08-19T11:21:05;19.30;1.00
5276;DHT22;2661;50.786;12.728;2022-08-19T11:23:31;19.40;99.90
5276;DHT22;2661;50.786;12.728;2022-08-19T11:25:58;19.40;99.90
5276;DHT22;2661;50.786;12.728;2022-08-19T11:28:26;19.40;99.90
5276;DHT22;2661;50.786;12.728;2022-08-19T11:30:52;19.30;99.90
5276;DHT22;2661;50.786;12.728;2022-08-19T11:33:19;19.30;99.90
5276;DHT22;2661;50.786;12.728;2022-08-19T11:35:46;19.20;99.90
5276;DHT22;2661;50.786;12.728;2022-08-19T11:38:12;19.20;99.90
5276;DHT22;2661;50.786;12.728;2022-08-19T11:40:41;19.20;99.90
5276;DHT22;2661;50.786;12.728;2022-08-19T11:43:08;19.10;99.90
5276;DHT22;2661;50.786;12.728;2022-08-19T11:45:36;19.10;99.90
5276;DHT22;2661;50.786;12.728;2022-08-19T11:48:03;19.10;1.00
5276;DHT22;2661;50.786;12.728;2022-08-19T11:50:29;19.00;1.00
5276;DHT22;2661;50.786;12.728;2022-08-19T11:52:56;19.10;1.00
5276;DHT22;2661;50.786;12.728;2022-08-19T11:55:23;19.00;99.90
5276;DHT22;2661;50.786;12.728;2022-08-19T11:57:50;19.00;99.90
5276;DHT22;2661;50.786;12.728;2022-08-19T12:00:17;18.90;99.90
5276;DHT22;2661;50.786;12.728;2022-08-19T12:02:44;18.90;99.90
5276;DHT22;2661;50.786;12.728;2022-08-19T12:05:10;19.00;22.70
5276;DHT22;2661;50.786;12.728;2022-08-19T12:07:38;19.00;1.00
5276;DHT22;2661;50.786;12.728;2022-08-19T12:10:06;19.00;30.60
5276;DHT22;2661;50.786;12.728;2022-08-19T12:12:33;19.00;1.00
5276;DHT22;2661;50.786;12.728;2022-08-19T12:15:01;19.10;1.00
5276;DHT22;2661;50.786;12.728;2022-08-19T12:17:28;19.20;1.00
5276;DHT22;2661;50.786;12.728;2022-08-19T12:19:57;19.30;1.00
5276;DHT22;2661;50.786;12.728;2022-08-19T12:22:24;19.40;1.00
5276;DHT22;2661;50.786;12.728;2022-08-19T12:24:50;19.40;99.90
5276;DHT22;2661;50.786;12.728;2022-08-19T12:27:19;19.40;99.90
5276;DHT22;2661;50.786;12.728;2022-08-19T12:30:06;19.40;99.90
5276;DHT22;2661;50.786;12.728;2022-08-19T12:32:33;19.30;99.90
5276;DHT22;2661;50.786;12.728;2022-08-19T12:35:00;19.30;99.90
5276;DHT22;2661;50.786;12.728;2022-08-19T12:37:27;19.40;99.90
5276;DHT22;2661;50.786;12.728;2022-08-19T12:39:54;19.40;99.90
5276;DHT22;2661;50.786;12.728;2022-08-19T12:42:21;19.30;99.90
5276;DHT22;2661;50.786;12.728;2022-08-19T12:44:49;19.30;99.90
5276;DHT22;2661;50.786;12.728;2022-08-19T12:47:16;19.30;99.90
5276;DHT22;2661;50.786;12.728;2022-08-19T12:49:45;19.30;99.90
5276;DHT22;2661;50.786;12.728;2022-08-19T12:52:21;19.30;99.90
5276;DHT22;2661;50.786;12.728;2022-08-19T12:54:49;19.30;99.90
5276;DHT22;2661;50.786;12.728;2022-08-19T12:57:20;19.20;99.90
5276;DHT22;2661;50.786;12.728;2022-08-19T12:59:51;19.20;99.90
5276;DHT22;2661;50.786;12.728;2022-08-19T13:02:19;19.30;99.90
5276;DHT22;2661;50.786;12.728;2022-08-19T13:04:46;19.30;99.90
5276;DHT22;2661;50.786;12.728;2022-08-19T13:07:13;19.30;99.90
5276;DHT22;2661;50.786;12.728;2022-08-19T13:09:39;19.20;99.90
5276;DHT22;2661;50.786;12.728;2022-08-19T13:12:09;19.20;99.90
5276;DHT22;2661;50.786;12.728;2022-08-19T13:14:39;19.20;99.90
5276;DHT22;2661;50.786;12.728;2022-08-19T13:17:07;19.10;99.90
5276;DHT22;2661;50.786;12.728;2022-08-19T13:19:36;19.10;99.90
5276;DHT22;2661;50.786;12.728;2022-08-19T13:22:02;19.10;99.90
5276;DHT22;2661;50.786;12.728;2022-08-19T13:24:29;19.20;99.90
5276;DHT22;2661;50.786;12.728;2022-08-19T13:27:00;19.30;99.90
5276;DHT22;2661;50.786;12.728;2022-08-19T13:29:27;19.20;99.90
5276;DHT22;2661;50.786;12.728;2022-08-19T13:32:12;19.20;99.90
5276;DHT22;2661;50.786;12.728;2022-08-19T13:34:57;19.20;99.90
5276;DHT22;2661;50.786;12.728;2022-08-19T13:37:24;19.20;99.90
5276;DHT22;2661;50.786;12.728;2022-08-19T13:40:14;19.20;99.90
5276;DHT22;2661;50.786;12.728;2022-08-19T13:42:44;19.20;99.90
5276;DHT22;2661;50.786;12.728;2022-08-19T13:45:14;19.30;99.90
5276;DHT22;2661;50.786;12.728;2022-08-19T13:47:41;19.30;99.90
5276;DHT22;2661;50.786;12.728;2022-08-19T13:50:12;19.40;99.90
5276;DHT22;2661;50.786;12.728;2022-08-19T13:52:39;19.50;99.90
5276;DHT22;2661;50.786;12.728;2022-08-19T13:55:06;19.70;99.90
5276;DHT22;2661;50.786;12.728;2022-08-19T13:57:33;19.80;99.90
5276;DHT22;2661;50.786;12.728;2022-08-19T14:00:00;19.90;99.90
5276;DHT22;2661;50.786;12.728;2022-08-19T14:02:27;19.90;77.30
5276;DHT22;2661;50.786;12.728;2022-08-19T14:04:54;19.90;62.10
5276;DHT22;2661;50.786;12.728;2022-08-19T14:07:21;19.90;99.90
5276;DHT22;2661;50.786;12.728;2022-08-19T14:09:50;19.90;99.90
5276;DHT22;2661;50.786;12.728;2022-08-19T14:12:20;19.90;99.90
5276;DHT22;2661;50.786;12.728;2022-08-19T14:14:54;19.80;99.90
5276;DHT22;2661;50.786;12.728;2022-08-19T14:17:21;19.90;99.90
5276;DHT22;2661;50.786;12.728;2022-08-19T14:19:48;19.80;99.90
5276;DHT22;2661;50.786;12.728;2022-08-19T14:22:15;19.90;99.90
5276;DHT22;2661;50.786;12.728;2022-08-19T14:24:47;19.90;99.90
5276;DHT22;2661;50.786;12.728;2022-08-19T14:27:14;19.90;99.90
5276;DHT22;2661;50.786;12.728;2022-08-19T14:29:41;20.00;99.90
5276;DHT22;2661;50.786;12.728;2022-08-19T14:32:08;20.00;99.90
5276;DHT22;2661;50.786;12.728;2022-08-19T14:34:42;20.00;99.90
5276;DHT22;2661;50.786;12.728;2022-08-19T14:37:12;20.00;99.90
5276;DHT22;2661;50.786;12.728;2022-08-19T14:39:41;20.00;99.90
5276;DHT22;2661;50.786;12.728;2022-08-19T14:42:08;20.10;99.90
5276;DHT22;2661;50.786;12.728;2022-08-19T14:44:37;20.10;99.90
5276;DHT22;2661;50.786;12.728;2022-08-19T14:47:04;20.20;95.60
5276;DHT22;2661;50.786;12.728;2022-08-19T14:49:35;20.20;99.90
5276;DHT22;2661;50.786;12.728;2022-08-19T14:52:09;20.20;99.90
5276;DHT22;2661;50.786;12.728;2022-08-19T14:54:36;20.30;99.90
5276;DHT22;2661;50.786;12.728;2022-08-19T14:57:02;20.20;99.90
5276;DHT22;2661;50.786;12.728;2022-08-19T14:59:29;20.30;99.90
5276;DHT22;2661;50.786;12.728;2022-08-19T15:01:56;20.30;99.90
5276;DHT22;2661;50.786;12.728;2022-08-19T15:04:23;20.30;99.90
5276;DHT22;2661;50.786;12.728;2022-08-19T15:06:49;20.30;99.90
5276;DHT22;2661;50.786;12.728;2022-08-19T15:09:17;20.20;99.90
5276;DHT22;2661;50.786;12.728;2022-08-19T15:11:44;20.20;99.90
5276;DHT22;2661;50.786;12.728;2022-08-19T15:14:10;20.20;99.90
5276;DHT22;2661;50.786;12.728;2022-08-19T15:16:37;20.10;99.90
5276;DHT22;2661;50.786;12.728;2022-08-19T15:19:06;20.20;99.90
5276;DHT22;2661;50.786;12.728;2022-08-19T15:21:33;20.10;99.90
5276;DHT22;2661;50.786;12.728;2022-08-19T15:24:00;20.10;99.90
5276;DHT22;2661;50.786;12.728;2022-08-19T15:26:27;20.10;99.90
5276;DHT22;2661;50.786;12.728;2022-08-19T15:28:59;20.00;99.90
5276;DHT22;2661;50.786;12.728;2022-08-19T15:31:25;19.90;99.90
5276;DHT22;2661;50.786;12.728;2022-08-19T15:33:55;19.90;99.90
5276;DHT22;2661;50.786;12.728;2022-08-19T15:36:24;19.90;99.90
5276;DHT22;2661;50.786;12.728;2022-08-19T15:38:51;19.90;99.90
5276;DHT22;2661;50.786;12.728;2022-08-19T15:41:20;19.90;99.90
5276;DHT22;2661;50.786;12.728;2022-08-19T15:46:18;19.90;99.90
5276;DHT22;2661;50.786;12.728;2022-08-19T15:48:45;19.90;99.90
5276;DHT22;2661;50.786;12.728;2022-08-19T15:51:22;19.80;99.90
5276;DHT22;2661;50.786;12.728;2022-08-19T15:53:49;19.80;99.90
5276;DHT22;2661;50.786;12.728;2022-08-19T15:56:15;19.80;99.90
5276;DHT22;2661;50.786;12.728;2022-08-19T15:58:42;19.90;99.90
5276;DHT22;2661;50.786;12.728;2022-08-19T16:01:28;19.80;99.90
5276;DHT22;2661;50.786;12.728;2022-08-19T16:03:59;19.80;99.90
5276;DHT22;2661;50.786;12.728;2022-08-19T16:06:49;19.70;99.90
5276;DHT22;2661;50.786;12.728;2022-08-19T16:09:17;19.70;99.90
5276;DHT22;2661;50.786;12.728;2022-08-19T16:11:50;19.70;99.90
5276;DHT22;2661;50.786;12.728;2022-08-19T16:14:24;19.70;99.90
5276;DHT22;2661;50.786;12.728;2022-08-19T16:16:51;19.60;99.90
5276;DHT22;2661;50.786;12.728;2022-08-19T16:19:19;19.60;99.90
5276;DHT22;2661;50.786;12.728;2022-08-19T16:21:47;19.60;99.90
5276;DHT22;2661;50.786;12.728;2022-08-19T16:24:16;19.70;99.90